sensor_id;sensor_type;location;lat;lon;timestamp;temperature;humidity
30379;DHT22;17168;49.164;9.060;2022-07-23T00:00:29;25.60;80.70
30379;DHT22;17168;49.164;9.060;2022-07-23T00:03:04;25.40;78.60
30379;DHT22;17168;49.164;9.060;2022-07-23T00:05:31;25.60;82.90
30379;DHT22;17168;49.164;9.060;2022-07-23T00:08:01;25.60;77.90
30379;DHT22;17168;49.164;9.060;2022-07-23T00:10:28;25.60;83.90
30379;DHT22;17168;49.164;9.060;2022-07-23T00:12:56;25.50;79.20
30379;DHT22;17168;49.164;9.060;2022-07-23T00:15:23;25.40;83.10
30379;DHT22;17168;49.164;9.060;2022-07-23T00:17:50;25.40;83.70
30379;DHT22;17168;49.164;9.060;2022-07-23T00:20:17;25.40;81.40
30379;DHT22;17168;49.164;9.060;2022-07-23T00:22:47;25.30;83.00
30379;DHT22;17168;49.164;9.060;2022-07-23T00:25:14;25.30;82.90
30379;DHT22;17168;49.164;9.060;2022-07-23T00:27:59;25.20;87.30
30379;DHT22;17168;49.164;9.060;2022-07-23T00:30:26;25.20;85.90
30379;DHT22;17168;49.164;9.060;2022-07-23T00:32:54;25.20;82.80
30379;DHT22;17168;49.164;9.060;2022-07-23T00:35:25;25.20;87.50
30379;DHT22;17168;49.164;9.060;2022-07-23T00:37:52;25.20;83.40
30379;DHT22;17168;49.164;9.060;2022-07-23T00:40:19;25.20;89.60
30379;DHT22;17168;49.164;9.060;2022-07-23T00:42:46;25.20;90.30
30379;DHT22;17168;49.164;9.060;2022-07-23T00:45:14;25.10;86.50
30379;DHT22;17168;49.164;9.060;2022-07-23T00:47:41;25.10;93.90
30379;DHT22;17168;49.164;9.060;2022-07-23T00:55:08;24.70;87.30
30379;DHT22;17168;49.164;9.060;2022-07-23T00:57:36;24.70;90.00
30379;DHT22;17168;49.164;9.060;2022-07-23T01:00:05;24.60;90.90
30379;DHT22;17168;49.164;9.060;2022-07-23T01:02:34;24.60;91.10
30379;DHT22;17168;49.164;9.060;2022-07-23T01:05:01;24.50;89.10
30379;DHT22;17168;49.164;9.060;2022-07-23T01:07:28;24.50;90.00
30379;DHT22;17168;49.164;9.060;2022-07-23T01:27:18;24.80;93.40
30379;DHT22;17168;49.164;9.060;2022-07-23T01:29:46;24.50;92.60
30379;DHT22;17168;49.164;9.060;2022-07-23T01:32:12;24.40;93.10
30379;DHT22;17168;49.164;9.060;2022-07-23T01:34:39;24.40;93.20
30379;DHT22;17168;49.164;9.060;2022-07-23T01:37:07;24.40;93.00
30379;DHT22;17168;49.164;9.060;2022-07-23T01:42:05;24.00;93.80
30379;DHT22;17168;49.164;9.060;2022-07-23T01:44:33;24.30;94.20
30379;DHT22;17168;49.164;9.060;2022-07-23T01:49:29;24.00;91.00
30379;DHT22;17168;49.164;9.060;2022-07-23T01:51:56;24.30;91.70
30379;DHT22;17168;49.164;9.060;2022-07-23T01:54:31;24.30;92.10
30379;DHT22;17168;49.164;9.060;2022-07-23T01:56:58;24.30;92.00
30379;DHT22;17168;49.164;9.060;2022-07-23T01:59:26;24.30;91.80
30379;DHT22;17168;49.164;9.060;2022-07-23T02:01:54;24.30;92.00
30379;DHT22;17168;49.164;9.060;2022-07-23T02:04:21;24.40;92.60
30379;DHT22;17168;49.164;9.060;2022-07-23T02:06:48;24.30;92.70
30379;DHT22;17168;49.164;9.060;2022-07-23T02:09:15;24.40;92.60
30379;DHT22;17168;49.164;9.060;2022-07-23T02:11:42;24.30;92.70
30379;DHT22;17168;49.164;9.060;2022-07-23T02:14:09;24.30;93.10
30379;DHT22;17168;49.164;9.060;2022-07-23T02:16:38;24.20;93.20
30379;DHT22;17168;49.164;9.060;2022-07-23T02:19:05;24.20;93.50
30379;DHT22;17168;49.164;9.060;2022-07-23T02:21:32;24.20;94.10
30379;DHT22;17168;49.164;9.060;2022-07-23T02:23:58;24.10;94.40
30379;DHT22;17168;49.164;9.060;2022-07-23T02:26:25;24.10;94.20
30379;DHT22;17168;49.164;9.060;2022-07-23T02:28:52;24.10;94.80
30379;DHT22;17168;49.164;9.060;2022-07-23T02:31:19;24.10;94.80
30379;DHT22;17168;49.164;9.060;2022-07-23T02:33:49;23.90;80.60
30379;DHT22;17168;49.164;9.060;2022-07-23T02:36:16;23.80;80.50
30379;DHT22;17168;49.164;9.060;2022-07-23T02:38:43;23.70;79.70
30379;DHT22;17168;49.164;9.060;2022-07-23T02:41:10;23.60;79.90
30379;DHT22;17168;49.164;9.060;2022-07-23T02:43:36;23.70;80.30
30379;DHT22;17168;49.164;9.060;2022-07-23T02:46:03;23.50;80.40
30379;DHT22;17168;49.164;9.060;2022-07-23T02:48:30;23.50;80.90
30379;DHT22;17168;49.164;9.060;2022-07-23T02:50:59;23.40;81.30
30379;DHT22;17168;49.164;9.060;2022-07-23T02:53:25;23.30;81.70
30379;DHT22;17168;49.164;9.060;2022-07-23T02:55:52;23.30;82.20
30379;DHT22;17168;49.164;9.060;2022-07-23T02:58:19;23.20;82.70
30379;DHT22;17168;49.164;9.060;2022-07-23T03:00:46;23.30;87.80
30379;DHT22;17168;49.164;9.060;2022-07-23T03:03:12;23.20;90.00
30379;DHT22;17168;49.164;9.060;2022-07-23T03:05:39;23.20;92.70
30379;DHT22;17168;49.164;9.060;2022-07-23T03:08:07;23.20;93.60
30379;DHT22;17168;49.164;9.060;2022-07-23T03:10:34;23.10;98.00
30379;DHT22;17168;49.164;9.060;2022-07-23T03:13:01;23.10;96.20
30379;DHT22;17168;49.164;9.060;2022-07-23T03:15:28;23.00;95.10
30379;DHT22;17168;49.164;9.060;2022-07-23T03:17:55;23.00;95.10
30379;DHT22;17168;49.164;9.060;2022-07-23T03:20:21;23.00;94.70
30379;DHT22;17168;49.164;9.060;2022-07-23T03:22:48;22.90;94.00
30379;DHT22;17168;49.164;9.060;2022-07-23T03:25:16;22.90;94.10
30379;DHT22;17168;49.164;9.060;2022-07-23T03:27:43;22.90;94.00
30379;DHT22;17168;49.164;9.060;2022-07-23T03:30:12;22.90;94.00
30379;DHT22;17168;49.164;9.060;2022-07-23T03:32:39;22.90;94.00
30379;DHT22;17168;49.164;9.060;2022-07-23T03:35:06;22.80;94.10
30379;DHT22;17168;49.164;9.060;2022-07-23T03:37:34;22.80;94.30
30379;DHT22;17168;49.164;9.060;2022-07-23T03:40:02;22.80;94.40
30379;DHT22;17168;49.164;9.060;2022-07-23T03:42:30;22.80;94.40
30379;DHT22;17168;49.164;9.060;2022-07-23T03:44:57;22.70;89.60
30379;DHT22;17168;49.164;9.060;2022-07-23T03:47:24;22.70;89.60
30379;DHT22;17168;49.164;9.060;2022-07-23T03:49:51;22.70;89.60
30379;DHT22;17168;49.164;9.060;2022-07-23T03:52:17;22.70;90.00
30379;DHT22;17168;49.164;9.060;2022-07-23T03:54:44;22.60;90.10
30379;DHT22;17168;49.164;9.060;2022-07-23T03:57:11;22.50;90.30
30379;DHT22;17168;49.164;9.060;2022-07-23T03:59:39;22.40;90.40
30379;DHT22;17168;49.164;9.060;2022-07-23T04:02:06;22.40;90.40
30379;DHT22;17168;49.164;9.060;2022-07-23T04:04:33;22.40;90.40
30379;DHT22;17168;49.164;9.060;2022-07-23T04:06:59;22.40;90.40
30379;DHT22;17168;49.164;9.060;2022-07-23T04:09:27;22.40;90.40
30379;DHT22;17168;49.164;9.060;2022-07-23T04:11:54;22.40;90.40
30379;DHT22;17168;49.164;9.060;2022-07-23T04:14:21;22.40;90.40
30379;DHT22;17168;49.164;9.060;2022-07-23T04:16:49;22.40;90.50
30379;DHT22;17168;49.164;9.060;2022-07-23T04:19:16;22.30;90.60
30379;DHT22;17168;49.164;9.060;2022-07-23T04:21:42;22.20;90.90
30379;DHT22;17168;49.164;9.060;2022-07-23T04:24:09;22.10;91.20
30379;DHT22;17168;49.164;9.060;2022-07-23T04:26:36;22.20;97.50
30379;DHT22;17168;49.164;9.060;2022-07-23T04:29:03;22.10;93.00
30379;DHT22;17168;49.164;9.060;2022-07-23T04:31:30;22.00;93.90
30379;DHT22;17168;49.164;9.060;2022-07-23T04:34:04;22.00;93.30
30379;DHT22;17168;49.164;9.060;2022-07-23T04:36:31;21.90;93.10
30379;DHT22;17168;49.164;9.060;2022-07-23T04:38:58;21.90;93.00
30379;DHT22;17168;49.164;9.060;2022-07-23T04:41:24;21.90;92.80
30379;DHT22;17168;49.164;9.060;2022-07-23T04:43:51;21.90;93.10
30379;DHT22;17168;49.164;9.060;2022-07-23T04:46:19;21.90;93.40
30379;DHT22;17168;49.164;9.060;2022-07-23T04:48:46;22.00;94.80
30379;DHT22;17168;49.164;9.060;2022-07-23T04:51:14;22.00;94.90
30379;DHT22;17168;49.164;9.060;2022-07-23T04:53:41;22.00;95.00
30379;DHT22;17168;49.164;9.060;2022-07-23T04:56:08;22.00;95.30
30379;DHT22;17168;49.164;9.060;2022-07-23T04:58:35;22.00;95.30
30379;DHT22;17168;49.164;9.060;2022-07-23T05:01:02;22.10;95.20
30379;DHT22;17168;49.164;9.060;2022-07-23T05:03:29;22.10;95.60
30379;DHT22;17168;49.164;9.060;2022-07-23T05:05:56;22.10;95.70
30379;DHT22;17168;49.164;9.060;2022-07-23T05:08:24;22.10;96.50
30379;DHT22;17168;49.164;9.060;2022-07-23T05:10:51;22.00;96.90
30379;DHT22;17168;49.164;9.060;2022-07-23T05:13:18;22.00;98.20
30379;DHT22;17168;49.164;9.060;2022-07-23T05:15:45;22.00;99.70
30379;DHT22;17168;49.164;9.060;2022-07-23T05:18:12;22.10;99.90
30379;DHT22;17168;49.164;9.060;2022-07-23T05:20:39;22.00;99.10
30379;DHT22;17168;49.164;9.060;2022-07-23T05:23:06;22.00;99.00
30379;DHT22;17168;49.164;9.060;2022-07-23T05:25:35;22.00;99.50
30379;DHT22;17168;49.164;9.060;2022-07-23T05:28:02;22.00;99.90
30379;DHT22;17168;49.164;9.060;2022-07-23T05:30:29;21.90;99.90
30379;DHT22;17168;49.164;9.060;2022-07-23T05:32:55;21.90;99.90
30379;DHT22;17168;49.164;9.060;2022-07-23T05:35:23;21.90;99.90
30379;DHT22;17168;49.164;9.060;2022-07-23T05:37:49;21.90;99.90
30379;DHT22;17168;49.164;9.060;2022-07-23T05:40:19;21.90;99.90
30379;DHT22;17168;49.164;9.060;2022-07-23T05:42:47;21.80;99.90
30379;DHT22;17168;49.164;9.060;2022-07-23T05:45:14;21.70;99.90
30379;DHT22;17168;49.164;9.060;2022-07-23T05:47:43;21.60;99.90
30379;DHT22;17168;49.164;9.060;2022-07-23T05:52:38;20.90;99.90
30379;DHT22;17168;49.164;9.060;2022-07-23T05:55:06;20.90;99.90
30379;DHT22;17168;49.164;9.060;2022-07-23T05:57:34;20.70;99.90
30379;DHT22;17168;49.164;9.060;2022-07-23T06:00:03;20.60;99.90
30379;DHT22;17168;49.164;9.060;2022-07-23T06:02:31;20.60;99.90
30379;DHT22;17168;49.164;9.060;2022-07-23T06:04:58;20.60;99.90
30379;DHT22;17168;49.164;9.060;2022-07-23T06:07:25;20.60;99.90
30379;DHT22;17168;49.164;9.060;2022-07-23T06:09:52;20.60;99.90
30379;DHT22;17168;49.164;9.060;2022-07-23T06:12:19;20.70;99.90
30379;DHT22;17168;49.164;9.060;2022-07-23T06:14:45;20.70;99.90
30379;DHT22;17168;49.164;9.060;2022-07-23T06:17:16;20.70;99.90
30379;DHT22;17168;49.164;9.060;2022-07-23T06:19:43;20.80;99.90
30379;DHT22;17168;49.164;9.060;2022-07-23T06:22:10;20.80;99.90
30379;DHT22;17168;49.164;9.060;2022-07-23T06:24:37;20.80;99.90
30379;DHT22;17168;49.164;9.060;2022-07-23T06:27:04;20.80;99.90
30379;DHT22;17168;49.164;9.060;2022-07-23T06:29:31;20.90;99.90
30379;DHT22;17168;49.164;9.060;2022-07-23T06:31:57;20.90;99.90
30379;DHT22;17168;49.164;9.060;2022-07-23T06:34:26;20.90;99.90
30379;DHT22;17168;49.164;9.060;2022-07-23T06:36:53;20.90;99.90
30379;DHT22;17168;49.164;9.060;2022-07-23T06:39:19;21.00;99.90
30379;DHT22;17168;49.164;9.060;2022-07-23T06:41:46;21.00;99.90
30379;DHT22;17168;49.164;9.060;2022-07-23T06:44:17;21.10;99.90
30379;DHT22;17168;49.164;9.060;2022-07-23T06:46:44;21.10;99.90
30379;DHT22;17168;49.164;9.060;2022-07-23T06:49:11;21.10;99.90
30379;DHT22;17168;49.164;9.060;2022-07-23T06:51:39;21.10;99.90
30379;DHT22;17168;49.164;9.060;2022-07-23T06:54:06;21.00;99.90
30379;DHT22;17168;49.164;9.060;2022-07-23T06:56:33;21.00;99.90
30379;DHT22;17168;49.164;9.060;2022-07-23T06:59:00;21.00;99.90
30379;DHT22;17168;49.164;9.060;2022-07-23T07:01:27;21.00;99.90
30379;DHT22;17168;49.164;9.060;2022-07-23T07:03:54;20.90;99.90
30379;DHT22;17168;49.164;9.060;2022-07-23T07:06:21;21.00;99.90
30379;DHT22;17168;49.164;9.060;2022-07-23T07:08:49;20.90;99.90
30379;DHT22;17168;49.164;9.060;2022-07-23T07:11:16;20.90;99.90
30379;DHT22;17168;49.164;9.060;2022-07-23T07:13:43;20.90;99.90
30379;DHT22;17168;49.164;9.060;2022-07-23T07:16:10;20.90;99.90
30379;DHT22;17168;49.164;9.060;2022-07-23T07:18:37;20.90;99.90
30379;DHT22;17168;49.164;9.060;2022-07-23T07:21:04;20.90;99.90
30379;DHT22;17168;49.164;9.060;2022-07-23T07:23:31;21.00;99.90
30379;DHT22;17168;49.164;9.060;2022-07-23T07:25:59;21.00;99.90
30379;DHT22;17168;49.164;9.060;2022-07-23T07:28:26;21.00;99.90
30379;DHT22;17168;49.164;9.060;2022-07-23T07:30:53;21.00;99.90
30379;DHT22;17168;49.164;9.060;2022-07-23T07:33:19;21.10;99.90
30379;DHT22;17168;49.164;9.060;2022-07-23T07:35:47;21.20;99.90
30379;DHT22;17168;49.164;9.060;2022-07-23T07:38:14;21.20;99.90
30379;DHT22;17168;49.164;9.060;2022-07-23T07:40:41;21.20;99.90
30379;DHT22;17168;49.164;9.060;2022-07-23T07:43:09;21.30;99.90
30379;DHT22;17168;49.164;9.060;2022-07-23T07:45:36;21.30;99.90
30379;DHT22;17168;49.164;9.060;2022-07-23T07:48:04;21.30;99.90
30379;DHT22;17168;49.164;9.060;2022-07-23T07:50:31;21.30;99.90
30379;DHT22;17168;49.164;9.060;2022-07-23T07:52:58;21.40;99.90
30379;DHT22;17168;49.164;9.060;2022-07-23T07:55:24;21.40;99.90
30379;DHT22;17168;49.164;9.060;2022-07-23T07:57:51;21.50;99.90
30379;DHT22;17168;49.164;9.060;2022-07-23T08:00:19;21.50;99.90
30379;DHT22;17168;49.164;9.060;2022-07-23T08:02:48;21.60;99.90
30379;DHT22;17168;49.164;9.060;2022-07-23T08:05:19;21.60;99.90
30379;DHT22;17168;49.164;9.060;2022-07-23T08:07:53;21.60;99.90
30379;DHT22;17168;49.164;9.060;2022-07-23T08:10:20;21.60;99.90
30379;DHT22;17168;49.164;9.060;2022-07-23T08:12:48;21.60;99.90
30379;DHT22;17168;49.164;9.060;2022-07-23T08:15:17;21.70;99.90
30379;DHT22;17168;49.164;9.060;2022-07-23T08:17:46;21.70;99.90
30379;DHT22;17168;49.164;9.060;2022-07-23T08:20:15;21.70;99.90
30379;DHT22;17168;49.164;9.060;2022-07-23T08:22:44;21.70;99.90
30379;DHT22;17168;49.164;9.060;2022-07-23T08:25:11;21.80;99.90
30379;DHT22;17168;49.164;9.060;2022-07-23T08:27:38;21.80;99.90
30379;DHT22;17168;49.164;9.060;2022-07-23T08:30:06;21.90;99.90
30379;DHT22;17168;49.164;9.060;2022-07-23T08:32:33;22.00;99.90
30379;DHT22;17168;49.164;9.060;2022-07-23T08:35:12;22.00;99.90
30379;DHT22;17168;49.164;9.060;2022-07-23T08:37:39;22.10;99.90
30379;DHT22;17168;49.164;9.060;2022-07-23T08:40:06;22.10;99.90
30379;DHT22;17168;49.164;9.060;2022-07-23T08:42:33;22.10;99.90
30379;DHT22;17168;49.164;9.060;2022-07-23T08:45:03;22.20;99.90
30379;DHT22;17168;49.164;9.060;2022-07-23T08:47:31;22.10;99.90
30379;DHT22;17168;49.164;9.060;2022-07-23T08:49:58;22.20;99.90
30379;DHT22;17168;49.164;9.060;2022-07-23T08:52:27;22.30;99.90
30379;DHT22;17168;49.164;9.060;2022-07-23T08:54:55;22.30;99.90
30379;DHT22;17168;49.164;9.060;2022-07-23T08:57:22;22.40;99.90
30379;DHT22;17168;49.164;9.060;2022-07-23T08:59:49;22.40;99.90
30379;DHT22;17168;49.164;9.060;2022-07-23T09:02:16;22.50;99.90
30379;DHT22;17168;49.164;9.060;2022-07-23T09:04:43;22.50;99.90
30379;DHT22;17168;49.164;9.060;2022-07-23T09:07:10;22.50;99.90
30379;DHT22;17168;49.164;9.060;2022-07-23T09:09:38;22.50;99.90
30379;DHT22;17168;49.164;9.060;2022-07-23T09:12:07;22.60;99.90
30379;DHT22;17168;49.164;9.060;2022-07-23T09:14:38;22.60;99.90
30379;DHT22;17168;49.164;9.060;2022-07-23T09:17:10;22.70;99.90
30379;DHT22;17168;49.164;9.060;2022-07-23T09:19:38;22.70;99.90
30379;DHT22;17168;49.164;9.060;2022-07-23T09:22:19;22.80;99.90
30379;DHT22;17168;49.164;9.060;2022-07-23T09:25:08;22.80;99.90
30379;DHT22;17168;49.164;9.060;2022-07-23T09:27:53;22.90;99.90
30379;DHT22;17168;49.164;9.060;2022-07-23T09:30:22;23.00;99.90
30379;DHT22;17168;49.164;9.060;2022-07-23T09:33:09;23.10;99.90
30379;DHT22;17168;49.164;9.060;2022-07-23T09:35:47;23.20;99.90
30379;DHT22;17168;49.164;9.060;2022-07-23T09:38:15;23.30;99.90
30379;DHT22;17168;49.164;9.060;2022-07-23T09:40:44;23.40;99.90
30379;DHT22;17168;49.164;9.060;2022-07-23T09:43:11;23.50;99.90
30379;DHT22;17168;49.164;9.060;2022-07-23T09:45:38;23.50;99.90
30379;DHT22;17168;49.164;9.060;2022-07-23T09:48:12;23.60;99.90
30379;DHT22;17168;49.164;9.060;2022-07-23T09:50:40;23.70;99.90
30379;DHT22;17168;49.164;9.060;2022-07-23T09:53:07;23.80;99.90
30379;DHT22;17168;49.164;9.060;2022-07-23T09:55:35;23.90;99.90
30379;DHT22;17168;49.164;9.060;2022-07-23T09:58:05;24.00;99.90
30379;DHT22;17168;49.164;9.060;2022-07-23T10:00:33;24.10;99.90
30379;DHT22;17168;49.164;9.060;2022-07-23T10:03:01;24.20;99.90
30379;DHT22;17168;49.164;9.060;2022-07-23T10:05:29;24.30;99.90
30379;DHT22;17168;49.164;9.060;2022-07-23T10:07:58;24.40;99.90
30379;DHT22;17168;49.164;9.060;2022-07-23T10:10:28;24.50;99.90
30379;DHT22;17168;49.164;9.060;2022-07-23T10:18:17;24.80;99.90
30379;DHT22;17168;49.164;9.060;2022-07-23T10:20:44;25.00;99.90
30379;DHT22;17168;49.164;9.060;2022-07-23T10:23:18;25.00;99.90
30379;DHT22;17168;49.164;9.060;2022-07-23T10:25:54;25.10;99.90
30379;DHT22;17168;49.164;9.060;2022-07-23T10:31:38;25.20;99.90
30379;DHT22;17168;49.164;9.060;2022-07-23T10:34:36;25.30;99.90
30379;DHT22;17168;49.164;9.060;2022-07-23T10:37:11;25.50;99.90
30379;DHT22;17168;49.164;9.060;2022-07-23T10:39:45;25.50;99.40
30379;DHT22;17168;49.164;9.060;2022-07-23T10:42:13;25.70;99.10
30379;DHT22;17168;49.164;9.060;2022-07-23T10:44:42;25.70;98.90
30379;DHT22;17168;49.164;9.060;2022-07-23T10:47:11;25.80;98.00
30379;DHT22;17168;49.164;9.060;2022-07-23T10:50:19;25.90;97.80
30379;DHT22;17168;49.164;9.060;2022-07-23T10:53:09;26.00;97.90
30379;DHT22;17168;49.164;9.060;2022-07-23T11:21:48;26.70;95.70
30379;DHT22;17168;49.164;9.060;2022-07-23T11:24:20;26.80;91.50
30379;DHT22;17168;49.164;9.060;2022-07-23T11:27:02;26.90;90.60
30379;DHT22;17168;49.164;9.060;2022-07-23T11:29:48;26.90;90.00
30379;DHT22;17168;49.164;9.060;2022-07-23T11:32:27;27.00;88.70
30379;DHT22;17168;49.164;9.060;2022-07-23T11:34:55;27.10;87.50
30379;DHT22;17168;49.164;9.060;2022-07-23T11:37:45;27.20;87.60
30379;DHT22;17168;49.164;9.060;2022-07-23T11:40:15;27.30;87.50
30379;DHT22;17168;49.164;9.060;2022-07-23T11:42:52;27.40;86.40
30379;DHT22;17168;49.164;9.060;2022-07-23T11:45:19;27.40;86.50
30379;DHT22;17168;49.164;9.060;2022-07-23T11:47:46;27.50;86.20
30379;DHT22;17168;49.164;9.060;2022-07-23T11:50:13;27.60;86.10
30379;DHT22;17168;49.164;9.060;2022-07-23T11:52:39;27.60;85.60
30379;DHT22;17168;49.164;9.060;2022-07-23T11:55:09;27.70;85.40
30379;DHT22;17168;49.164;9.060;2022-07-23T11:57:38;27.70;84.80
30379;DHT22;17168;49.164;9.060;2022-07-23T12:00:07;27.80;84.30
30379;DHT22;17168;49.164;9.060;2022-07-23T12:02:36;27.80;83.50
30379;DHT22;17168;49.164;9.060;2022-07-23T12:05:04;27.90;84.00
30379;DHT22;17168;49.164;9.060;2022-07-23T12:07:33;28.10;87.30
30379;DHT22;17168;49.164;9.060;2022-07-23T12:10:03;28.20;88.90
30379;DHT22;17168;49.164;9.060;2022-07-23T12:12:38;28.60;84.30
30379;DHT22;17168;49.164;9.060;2022-07-23T12:17:37;29.50;82.40
30379;DHT22;17168;49.164;9.060;2022-07-23T12:20:06;29.50;82.70
30379;DHT22;17168;49.164;9.060;2022-07-23T12:37:45;30.80;86.10
30379;DHT22;17168;49.164;9.060;2022-07-23T12:40:26;31.40;82.30
30379;DHT22;17168;49.164;9.060;2022-07-23T12:42:56;31.60;81.90
30379;DHT22;17168;49.164;9.060;2022-07-23T12:45:24;31.80;76.60
30379;DHT22;17168;49.164;9.060;2022-07-23T12:48:02;32.00;75.90
30379;DHT22;17168;49.164;9.060;2022-07-23T12:50:37;32.30;76.40
30379;DHT22;17168;49.164;9.060;2022-07-23T12:53:06;32.40;75.90
30379;DHT22;17168;49.164;9.060;2022-07-23T12:55:45;32.50;76.10
30379;DHT22;17168;49.164;9.060;2022-07-23T12:58:47;32.60;75.70
30379;DHT22;17168;49.164;9.060;2022-07-23T13:01:27;32.60;76.60
30379;DHT22;17168;49.164;9.060;2022-07-23T13:03:59;32.50;76.80
30379;DHT22;17168;49.164;9.060;2022-07-23T13:06:28;32.30;76.60
30379;DHT22;17168;49.164;9.060;2022-07-23T13:08:55;32.40;75.00
30379;DHT22;17168;49.164;9.060;2022-07-23T13:11:22;32.40;74.60
30379;DHT22;17168;49.164;9.060;2022-07-23T13:13:50;32.40;76.50
30379;DHT22;17168;49.164;9.060;2022-07-23T13:16:17;32.40;73.90
30379;DHT22;17168;49.164;9.060;2022-07-23T13:18:47;32.50;75.20
30379;DHT22;17168;49.164;9.060;2022-07-23T13:21:16;32.50;73.60
30379;DHT22;17168;49.164;9.060;2022-07-23T13:23:44;32.40;73.40
30379;DHT22;17168;49.164;9.060;2022-07-23T13:26:11;32.40;73.10
30379;DHT22;17168;49.164;9.060;2022-07-23T13:28:38;32.40;73.40
30379;DHT22;17168;49.164;9.060;2022-07-23T13:31:05;32.40;75.20
30379;DHT22;17168;49.164;9.060;2022-07-23T13:33:35;32.50;72.50
30379;DHT22;17168;49.164;9.060;2022-07-23T13:36:03;32.30;72.70
30379;DHT22;17168;49.164;9.060;2022-07-23T13:38:32;32.10;73.50
30379;DHT22;17168;49.164;9.060;2022-07-23T13:41:00;32.00;73.20
30379;DHT22;17168;49.164;9.060;2022-07-23T13:43:27;32.00;73.40
30379;DHT22;17168;49.164;9.060;2022-07-23T13:46:02;32.00;72.60
30379;DHT22;17168;49.164;9.060;2022-07-23T13:48:30;32.00;73.10
30379;DHT22;17168;49.164;9.060;2022-07-23T13:50:57;32.00;72.80
30379;DHT22;17168;49.164;9.060;2022-07-23T13:53:26;32.10;72.80
30379;DHT22;17168;49.164;9.060;2022-07-23T13:55:55;32.10;73.10
30379;DHT22;17168;49.164;9.060;2022-07-23T13:58:24;32.10;72.80
30379;DHT22;17168;49.164;9.060;2022-07-23T14:00:53;31.90;72.50
30379;DHT22;17168;49.164;9.060;2022-07-23T14:03:21;31.80;72.60
30379;DHT22;17168;49.164;9.060;2022-07-23T14:05:53;31.70;72.30
30379;DHT22;17168;49.164;9.060;2022-07-23T14:08:23;31.60;72.60
30379;DHT22;17168;49.164;9.060;2022-07-23T14:10:50;31.40;72.70
30379;DHT22;17168;49.164;9.060;2022-07-23T14:13:20;31.30;73.00
30379;DHT22;17168;49.164;9.060;2022-07-23T14:15:48;31.10;72.60
30379;DHT22;17168;49.164;9.060;2022-07-23T14:18:17;31.00;73.00
30379;DHT22;17168;49.164;9.060;2022-07-23T14:20:44;30.90;73.10
30379;DHT22;17168;49.164;9.060;2022-07-23T14:23:11;30.80;73.10
30379;DHT22;17168;49.164;9.060;2022-07-23T14:25:40;30.90;73.50
30379;DHT22;17168;49.164;9.060;2022-07-23T14:28:07;31.00;73.20
30379;DHT22;17168;49.164;9.060;2022-07-23T14:30:36;31.10;72.90
30379;DHT22;17168;49.164;9.060;2022-07-23T14:33:03;31.20;73.50
30379;DHT22;17168;49.164;9.060;2022-07-23T14:35:30;31.30;73.40
30379;DHT22;17168;49.164;9.060;2022-07-23T14:37:57;31.30;72.60
30379;DHT22;17168;49.164;9.060;2022-07-23T14:40:24;31.40;72.80
30379;DHT22;17168;49.164;9.060;2022-07-23T14:42:51;31.40;72.50
30379;DHT22;17168;49.164;9.060;2022-07-23T14:45:19;31.40;73.20
30379;DHT22;17168;49.164;9.060;2022-07-23T14:47:47;31.40;73.30
30379;DHT22;17168;49.164;9.060;2022-07-23T14:50:14;31.50;73.70
30379;DHT22;17168;49.164;9.060;2022-07-23T14:52:42;31.60;73.50
30379;DHT22;17168;49.164;9.060;2022-07-23T14:55:08;31.60;73.50
30379;DHT22;17168;49.164;9.060;2022-07-23T14:57:35;31.60;73.50
30379;DHT22;17168;49.164;9.060;2022-07-23T15:00:03;31.60;73.30
30379;DHT22;17168;49.164;9.060;2022-07-23T15:02:31;31.60;73.00
30379;DHT22;17168;49.164;9.060;2022-07-23T15:04:59;31.60;73.80
30379;DHT22;17168;49.164;9.060;2022-07-23T15:07:33;31.50;73.50
30379;DHT22;17168;49.164;9.060;2022-07-23T15:10:00;31.40;73.30
30379;DHT22;17168;49.164;9.060;2022-07-23T15:12:28;31.30;72.90
30379;DHT22;17168;49.164;9.060;2022-07-23T15:14:55;31.30;73.10
30379;DHT22;17168;49.164;9.060;2022-07-23T15:17:22;31.20;73.20
30379;DHT22;17168;49.164;9.060;2022-07-23T15:19:52;31.10;73.40
30379;DHT22;17168;49.164;9.060;2022-07-23T15:22:20;31.00;73.50
30379;DHT22;17168;49.164;9.060;2022-07-23T15:24:47;31.00;74.20
30379;DHT22;17168;49.164;9.060;2022-07-23T15:27:14;31.00;74.30
30379;DHT22;17168;49.164;9.060;2022-07-23T15:29:43;30.90;74.50
30379;DHT22;17168;49.164;9.060;2022-07-23T15:32:11;30.90;74.40
30379;DHT22;17168;49.164;9.060;2022-07-23T15:34:39;30.80;74.70
30379;DHT22;17168;49.164;9.060;2022-07-23T15:37:06;30.80;75.10
30379;DHT22;17168;49.164;9.060;2022-07-23T15:39:55;30.70;75.20
30379;DHT22;17168;49.164;9.060;2022-07-23T15:42:21;30.80;75.70
30379;DHT22;17168;49.164;9.060;2022-07-23T15:44:48;30.80;75.50
30379;DHT22;17168;49.164;9.060;2022-07-23T15:47:16;30.80;75.30
30379;DHT22;17168;49.164;9.060;2022-07-23T15:49:44;30.80;75.30
30379;DHT22;17168;49.164;9.060;2022-07-23T15:52:11;30.80;75.20
30379;DHT22;17168;49.164;9.060;2022-07-23T15:54:40;30.80;75.30
30379;DHT22;17168;49.164;9.060;2022-07-23T15:57:09;30.80;75.30
30379;DHT22;17168;49.164;9.060;2022-07-23T15:59:36;30.90;75.40
30379;DHT22;17168;49.164;9.060;2022-07-23T16:02:03;30.90;75.00
30379;DHT22;17168;49.164;9.060;2022-07-23T16:04:30;30.90;75.20
30379;DHT22;17168;49.164;9.060;2022-07-23T16:06:59;30.90;75.10
30379;DHT22;17168;49.164;9.060;2022-07-23T16:09:26;31.00;75.00
30379;DHT22;17168;49.164;9.060;2022-07-23T16:11:53;31.10;75.10
30379;DHT22;17168;49.164;9.060;2022-07-23T16:14:22;31.20;75.00
30379;DHT22;17168;49.164;9.060;2022-07-23T16:16:50;31.40;75.50
30379;DHT22;17168;49.164;9.060;2022-07-23T16:19:16;31.50;75.30
30379;DHT22;17168;49.164;9.060;2022-07-23T16:21:44;31.60;75.30
30379;DHT22;17168;49.164;9.060;2022-07-23T16:24:11;31.70;75.10
30379;DHT22;17168;49.164;9.060;2022-07-23T16:26:38;31.70;74.60
30379;DHT22;17168;49.164;9.060;2022-07-23T16:29:04;31.70;74.40
30379;DHT22;17168;49.164;9.060;2022-07-23T16:31:33;31.70;74.30
30379;DHT22;17168;49.164;9.060;2022-07-23T16:34:00;31.60;74.30
30379;DHT22;17168;49.164;9.060;2022-07-23T16:36:28;31.60;74.70
30379;DHT22;17168;49.164;9.060;2022-07-23T16:38:55;31.60;74.70
30379;DHT22;17168;49.164;9.060;2022-07-23T16:41:22;31.60;74.40
30379;DHT22;17168;49.164;9.060;2022-07-23T16:43:49;31.60;74.50
30379;DHT22;17168;49.164;9.060;2022-07-23T16:46:15;31.60;74.60
30379;DHT22;17168;49.164;9.060;2022-07-23T16:48:44;31.60;74.60
30379;DHT22;17168;49.164;9.060;2022-07-23T16:51:11;31.60;74.70
30379;DHT22;17168;49.164;9.060;2022-07-23T16:53:38;31.60;74.80
30379;DHT22;17168;49.164;9.060;2022-07-23T16:56:05;31.60;74.60
30379;DHT22;17168;49.164;9.060;2022-07-23T16:58:32;31.60;74.90
30379;DHT22;17168;49.164;9.060;2022-07-23T17:00:59;31.60;75.10